sensor_id;sensor_type;location;lat;lon;timestamp;P1;durP1;ratioP1;P2;durP2;ratioP2
28343;SDS011;15597;50.914;6.638;2023-08-06T00:00:04;4.65;;;2.25;;
28343;SDS011;15597;50.914;6.638;2023-08-06T00:02:34;3.88;;;2.08;;
28343;SDS011;15597;50.914;6.638;2023-08-06T00:05:00;4.22;;;2.20;;
28343;SDS011;15597;50.914;6.638;2023-08-06T00:07:25;4.43;;;2.17;;
28343;SDS011;15597;50.914;6.638;2023-08-06T00:09:51;4.82;;;2.30;;
28343;SDS011;15597;50.914;6.638;2023-08-06T00:12:16;5.20;;;2.17;;
28343;SDS011;15597;50.914;6.638;2023-08-06T00:14:42;5.13;;;1.90;;
28343;SDS011;15597;50.914;6.638;2023-08-06T00:17:08;5.88;;;2.10;;
28343;SDS011;15597;50.914;6.638;2023-08-06T00:19:33;4.75;;;1.83;;
28343;SDS011;15597;50.914;6.638;2023-08-06T00:21:59;4.82;;;2.13;;
28343;SDS011;15597;50.914;6.638;2023-08-06T00:24:24;4.60;;;1.98;;
28343;SDS011;15597;50.914;6.638;2023-08-06T00:26:50;4.18;;;1.60;;
28343;SDS011;15597;50.914;6.638;2023-08-06T00:29:15;5.07;;;2.10;;
28343;SDS011;15597;50.914;6.638;2023-08-06T00:31:41;4.45;;;1.95;;
28343;SDS011;15597;50.914;6.638;2023-08-06T00:34:06;4.95;;;2.20;;
28343;SDS011;15597;50.914;6.638;2023-08-06T00:36:32;4.43;;;1.98;;
28343;SDS011;15597;50.914;6.638;2023-08-06T00:38:58;4.95;;;1.70;;
28343;SDS011;15597;50.914;6.638;2023-08-06T00:41:23;4.95;;;2.00;;
28343;SDS011;15597;50.914;6.638;2023-08-06T00:43:49;3.45;;;1.50;;
28343;SDS011;15597;50.914;6.638;2023-08-06T00:46:14;4.70;;;1.63;;
28343;SDS011;15597;50.914;6.638;2023-08-06T00:48:40;4.45;;;1.90;;
28343;SDS011;15597;50.914;6.638;2023-08-06T00:51:07;4.55;;;1.40;;
28343;SDS011;15597;50.914;6.638;2023-08-06T00:53:39;3.83;;;1.75;;
28343;SDS011;15597;50.914;6.638;2023-08-06T00:56:05;3.63;;;1.77;;
28343;SDS011;15597;50.914;6.638;2023-08-06T00:58:33;5.10;;;2.05;;
28343;SDS011;15597;50.914;6.638;2023-08-06T01:01:00;3.38;;;1.63;;
28343;SDS011;15597;50.914;6.638;2023-08-06T01:03:26;4.35;;;1.85;;
28343;SDS011;15597;50.914;6.638;2023-08-06T01:05:51;3.47;;;1.73;;
28343;SDS011;15597;50.914;6.638;2023-08-06T01:08:29;3.80;;;1.58;;
28343;SDS011;15597;50.914;6.638;2023-08-06T01:13:54;3.53;;;1.60;;
28343;SDS011;15597;50.914;6.638;2023-08-06T01:16:27;2.67;;;1.20;;
28343;SDS011;15597;50.914;6.638;2023-08-06T01:18:55;4.05;;;1.40;;
28343;SDS011;15597;50.914;6.638;2023-08-06T01:21:23;4.50;;;1.48;;
28343;SDS011;15597;50.914;6.638;2023-08-06T01:23:48;3.13;;;1.38;;
28343;SDS011;15597;50.914;6.638;2023-08-06T01:31:50;4.15;;;1.50;;
28343;SDS011;15597;50.914;6.638;2023-08-06T01:34:20;3.05;;;1.00;;
28343;SDS011;15597;50.914;6.638;2023-08-06T01:36:48;3.35;;;1.25;;
28343;SDS011;15597;50.914;6.638;2023-08-06T01:39:15;3.95;;;1.63;;
28343;SDS011;15597;50.914;6.638;2023-08-06T01:41:40;3.28;;;1.30;;
28343;SDS011;15597;50.914;6.638;2023-08-06T01:44:06;4.78;;;1.48;;
28343;SDS011;15597;50.914;6.638;2023-08-06T01:46:32;3.85;;;1.48;;
28343;SDS011;15597;50.914;6.638;2023-08-06T01:48:57;5.25;;;1.65;;
28343;SDS011;15597;50.914;6.638;2023-08-06T01:51:23;3.78;;;1.33;;
28343;SDS011;15597;50.914;6.638;2023-08-06T01:53:49;4.40;;;1.45;;
28343;SDS011;15597;50.914;6.638;2023-08-06T01:56:14;3.42;;;1.40;;
28343;SDS011;15597;50.914;6.638;2023-08-06T01:58:40;2.35;;;1.15;;
28343;SDS011;15597;50.914;6.638;2023-08-06T02:01:06;3.42;;;1.30;;
28343;SDS011;15597;50.914;6.638;2023-08-06T02:03:31;2.78;;;1.17;;
28343;SDS011;15597;50.914;6.638;2023-08-06T02:05:57;3.03;;;1.27;;
28343;SDS011;15597;50.914;6.638;2023-08-06T02:08:23;4.00;;;1.10;;
28343;SDS011;15597;50.914;6.638;2023-08-06T02:10:48;3.65;;;1.15;;
28343;SDS011;15597;50.914;6.638;2023-08-06T02:13:14;3.45;;;1.40;;
28343;SDS011;15597;50.914;6.638;2023-08-06T02:15:43;3.30;;;1.00;;
28343;SDS011;15597;50.914;6.638;2023-08-06T02:18:10;3.80;;;1.40;;
28343;SDS011;15597;50.914;6.638;2023-08-06T02:20:35;3.00;;;1.30;;
28343;SDS011;15597;50.914;6.638;2023-08-06T02:23:01;4.97;;;1.25;;
28343;SDS011;15597;50.914;6.638;2023-08-06T02:25:27;2.88;;;1.10;;
28343;SDS011;15597;50.914;6.638;2023-08-06T02:27:52;3.13;;;1.05;;
28343;SDS011;15597;50.914;6.638;2023-08-06T02:30:18;3.45;;;0.98;;
28343;SDS011;15597;50.914;6.638;2023-08-06T02:32:43;3.72;;;1.15;;
28343;SDS011;15597;50.914;6.638;2023-08-06T02:35:09;3.40;;;1.10;;
28343;SDS011;15597;50.914;6.638;2023-08-06T02:37:34;3.20;;;1.05;;
28343;SDS011;15597;50.914;6.638;2023-08-06T02:40:00;2.63;;;1.10;;
28343;SDS011;15597;50.914;6.638;2023-08-06T02:42:26;2.70;;;1.17;;
28343;SDS011;15597;50.914;6.638;2023-08-06T02:44:52;3.78;;;1.20;;
28343;SDS011;15597;50.914;6.638;2023-08-06T02:47:20;3.30;;;1.33;;
28343;SDS011;15597;50.914;6.638;2023-08-06T02:49:46;3.45;;;1.20;;
28343;SDS011;15597;50.914;6.638;2023-08-06T02:52:11;3.17;;;1.25;;
28343;SDS011;15597;50.914;6.638;2023-08-06T02:54:37;2.60;;;1.00;;
28343;SDS011;15597;50.914;6.638;2023-08-06T02:57:04;4.00;;;1.20;;
28343;SDS011;15597;50.914;6.638;2023-08-06T02:59:32;2.92;;;1.20;;
28343;SDS011;15597;50.914;6.638;2023-08-06T03:02:04;3.03;;;1.05;;
28343;SDS011;15597;50.914;6.638;2023-08-06T03:04:40;3.75;;;1.00;;
28343;SDS011;15597;50.914;6.638;2023-08-06T03:07:07;3.00;;;1.20;;
28343;SDS011;15597;50.914;6.638;2023-08-06T03:09:41;2.92;;;1.20;;
28343;SDS011;15597;50.914;6.638;2023-08-06T03:12:07;2.92;;;0.95;;
28343;SDS011;15597;50.914;6.638;2023-08-06T03:14:33;4.63;;;1.27;;
28343;SDS011;15597;50.914;6.638;2023-08-06T03:16:58;3.15;;;1.17;;
28343;SDS011;15597;50.914;6.638;2023-08-06T03:19:24;3.03;;;1.30;;
28343;SDS011;15597;50.914;6.638;2023-08-06T03:21:49;2.67;;;0.90;;
28343;SDS011;15597;50.914;6.638;2023-08-06T03:24:15;4.13;;;1.15;;
28343;SDS011;15597;50.914;6.638;2023-08-06T03:26:42;3.05;;;1.20;;
28343;SDS011;15597;50.914;6.638;2023-08-06T03:29:09;2.58;;;1.00;;
28343;SDS011;15597;50.914;6.638;2023-08-06T03:31:35;2.65;;;0.90;;
28343;SDS011;15597;50.914;6.638;2023-08-06T03:34:00;3.42;;;1.08;;
28343;SDS011;15597;50.914;6.638;2023-08-06T03:36:28;2.88;;;1.10;;
28343;SDS011;15597;50.914;6.638;2023-08-06T03:38:54;2.75;;;1.10;;
28343;SDS011;15597;50.914;6.638;2023-08-06T03:41:20;4.65;;;1.27;;
28343;SDS011;15597;50.914;6.638;2023-08-06T03:43:46;4.30;;;1.20;;
28343;SDS011;15597;50.914;6.638;2023-08-06T03:46:18;3.20;;;1.13;;
28343;SDS011;15597;50.914;6.638;2023-08-06T03:48:43;3.45;;;1.20;;
28343;SDS011;15597;50.914;6.638;2023-08-06T03:51:09;5.38;;;1.35;;
28343;SDS011;15597;50.914;6.638;2023-08-06T03:53:36;3.47;;;1.30;;
28343;SDS011;15597;50.914;6.638;2023-08-06T03:56:02;4.38;;;1.23;;
28343;SDS011;15597;50.914;6.638;2023-08-06T03:58:29;4.05;;;1.45;;
28343;SDS011;15597;50.914;6.638;2023-08-06T04:00:59;3.33;;;1.20;;
28343;SDS011;15597;50.914;6.638;2023-08-06T04:03:27;5.53;;;1.10;;
28343;SDS011;15597;50.914;6.638;2023-08-06T04:05:54;4.70;;;1.10;;
28343;SDS011;15597;50.914;6.638;2023-08-06T04:08:19;2.75;;;1.10;;
28343;SDS011;15597;50.914;6.638;2023-08-06T04:10:45;2.60;;;1.17;;
28343;SDS011;15597;50.914;6.638;2023-08-06T04:13:14;2.85;;;1.10;;
28343;SDS011;15597;50.914;6.638;2023-08-06T04:15:39;3.80;;;1.08;;
28343;SDS011;15597;50.914;6.638;2023-08-06T04:18:05;2.08;;;0.88;;
28343;SDS011;15597;50.914;6.638;2023-08-06T04:20:31;3.58;;;1.30;;
28343;SDS011;15597;50.914;6.638;2023-08-06T04:22:57;3.47;;;1.10;;
28343;SDS011;15597;50.914;6.638;2023-08-06T04:25:22;3.20;;;1.20;;
28343;SDS011;15597;50.914;6.638;2023-08-06T04:27:49;2.38;;;0.98;;
28343;SDS011;15597;50.914;6.638;2023-08-06T04:30:15;3.10;;;1.30;;
28343;SDS011;15597;50.914;6.638;2023-08-06T04:32:41;3.40;;;1.23;;
28343;SDS011;15597;50.914;6.638;2023-08-06T04:35:07;2.78;;;1.10;;
28343;SDS011;15597;50.914;6.638;2023-08-06T04:37:34;3.08;;;1.23;;
28343;SDS011;15597;50.914;6.638;2023-08-06T04:39:59;3.40;;;1.10;;
28343;SDS011;15597;50.914;6.638;2023-08-06T04:42:25;2.83;;;1.20;;
28343;SDS011;15597;50.914;6.638;2023-08-06T04:44:51;2.90;;;1.05;;
28343;SDS011;15597;50.914;6.638;2023-08-06T04:47:16;6.30;;;1.20;;
28343;SDS011;15597;50.914;6.638;2023-08-06T04:49:42;2.88;;;1.00;;
28343;SDS011;15597;50.914;6.638;2023-08-06T04:52:08;3.33;;;1.17;;
28343;SDS011;15597;50.914;6.638;2023-08-06T04:54:33;2.42;;;1.10;;
28343;SDS011;15597;50.914;6.638;2023-08-06T04:56:59;3.35;;;1.17;;
28343;SDS011;15597;50.914;6.638;2023-08-06T04:59:24;3.50;;;1.40;;
28343;SDS011;15597;50.914;6.638;2023-08-06T05:01:50;3.83;;;1.10;;
28343;SDS011;15597;50.914;6.638;2023-08-06T05:04:16;4.03;;;1.42;;
28343;SDS011;15597;50.914;6.638;2023-08-06T05:06:41;4.15;;;1.30;;
28343;SDS011;15597;50.914;6.638;2023-08-06T05:09:07;2.88;;;1.20;;
28343;SDS011;15597;50.914;6.638;2023-08-06T05:11:33;3.72;;;1.35;;
28343;SDS011;15597;50.914;6.638;2023-08-06T05:13:59;3.70;;;1.20;;
28343;SDS011;15597;50.914;6.638;2023-08-06T05:16:24;3.05;;;1.27;;
28343;SDS011;15597;50.914;6.638;2023-08-06T05:18:50;3.83;;;1.20;;
28343;SDS011;15597;50.914;6.638;2023-08-06T05:21:15;5.10;;;1.33;;
28343;SDS011;15597;50.914;6.638;2023-08-06T05:23:41;2.97;;;1.25;;
28343;SDS011;15597;50.914;6.638;2023-08-06T05:26:08;6.65;;;1.50;;
28343;SDS011;15597;50.914;6.638;2023-08-06T05:28:34;3.30;;;1.35;;
28343;SDS011;15597;50.914;6.638;2023-08-06T05:31:06;3.47;;;1.63;;
28343;SDS011;15597;50.914;6.638;2023-08-06T05:33:32;3.10;;;1.13;;
28343;SDS011;15597;50.914;6.638;2023-08-06T05:35:57;5.18;;;1.33;;
28343;SDS011;15597;50.914;6.638;2023-08-06T05:38:23;2.50;;;1.20;;
28343;SDS011;15597;50.914;6.638;2023-08-06T05:40:48;4.72;;;1.35;;
28343;SDS011;15597;50.914;6.638;2023-08-06T05:43:14;3.70;;;1.30;;
28343;SDS011;15597;50.914;6.638;2023-08-06T05:45:43;3.60;;;1.30;;
28343;SDS011;15597;50.914;6.638;2023-08-06T05:48:10;3.53;;;1.25;;
28343;SDS011;15597;50.914;6.638;2023-08-06T05:50:36;2.53;;;1.10;;
28343;SDS011;15597;50.914;6.638;2023-08-06T05:53:01;4.85;;;1.60;;
28343;SDS011;15597;50.914;6.638;2023-08-06T05:55:27;3.42;;;1.30;;
28343;SDS011;15597;50.914;6.638;2023-08-06T05:57:52;2.95;;;1.20;;
28343;SDS011;15597;50.914;6.638;2023-08-06T06:00:18;3.45;;;1.10;;
28343;SDS011;15597;50.914;6.638;2023-08-06T06:02:44;3.13;;;1.15;;
28343;SDS011;15597;50.914;6.638;2023-08-06T06:05:11;2.83;;;1.10;;
28343;SDS011;15597;50.914;6.638;2023-08-06T06:07:36;3.05;;;1.20;;
28343;SDS011;15597;50.914;6.638;2023-08-06T06:10:02;3.03;;;1.30;;
28343;SDS011;15597;50.914;6.638;2023-08-06T06:12:28;3.28;;;1.00;;
28343;SDS011;15597;50.914;6.638;2023-08-06T06:14:54;3.28;;;0.90;;
28343;SDS011;15597;50.914;6.638;2023-08-06T06:17:19;2.72;;;1.08;;
28343;SDS011;15597;50.914;6.638;2023-08-06T06:19:45;3.88;;;1.20;;
28343;SDS011;15597;50.914;6.638;2023-08-06T06:22:11;3.00;;;1.10;;
28343;SDS011;15597;50.914;6.638;2023-08-06T06:24:36;2.22;;;1.00;;
28343;SDS011;15597;50.914;6.638;2023-08-06T06:27:02;2.53;;;1.10;;
28343;SDS011;15597;50.914;6.638;2023-08-06T06:29:28;3.92;;;0.90;;
28343;SDS011;15597;50.914;6.638;2023-08-06T06:31:53;2.92;;;1.10;;
28343;SDS011;15597;50.914;6.638;2023-08-06T06:34:19;3.08;;;1.25;;
28343;SDS011;15597;50.914;6.638;2023-08-06T06:36:44;1.83;;;0.80;;
28343;SDS011;15597;50.914;6.638;2023-08-06T06:39:10;3.35;;;1.10;;
28343;SDS011;15597;50.914;6.638;2023-08-06T06:41:35;2.90;;;0.88;;
28343;SDS011;15597;50.914;6.638;2023-08-06T06:44:09;1.67;;;0.77;;
28343;SDS011;15597;50.914;6.638;2023-08-06T06:46:35;5.07;;;1.10;;
28343;SDS011;15597;50.914;6.638;2023-08-06T06:49:01;2.35;;;0.93;;
28343;SDS011;15597;50.914;6.638;2023-08-06T06:51:26;1.55;;;0.80;;
28343;SDS011;15597;50.914;6.638;2023-08-06T06:53:52;2.25;;;1.00;;
28343;SDS011;15597;50.914;6.638;2023-08-06T06:56:18;2.35;;;0.90;;
28343;SDS011;15597;50.914;6.638;2023-08-06T06:58:43;3.72;;;1.00;;
28343;SDS011;15597;50.914;6.638;2023-08-06T07:01:09;2.42;;;1.00;;
28343;SDS011;15597;50.914;6.638;2023-08-06T07:03:37;2.92;;;1.10;;
28343;SDS011;15597;50.914;6.638;2023-08-06T07:06:03;2.33;;;0.88;;
28343;SDS011;15597;50.914;6.638;2023-08-06T07:08:29;2.15;;;1.10;;
28343;SDS011;15597;50.914;6.638;2023-08-06T07:11:01;2.15;;;0.88;;
28343;SDS011;15597;50.914;6.638;2023-08-06T07:13:30;2.75;;;0.90;;
28343;SDS011;15597;50.914;6.638;2023-08-06T07:15:56;2.75;;;0.98;;
28343;SDS011;15597;50.914;6.638;2023-08-06T07:18:22;2.42;;;1.00;;
28343;SDS011;15597;50.914;6.638;2023-08-06T07:20:51;2.15;;;0.90;;
28343;SDS011;15597;50.914;6.638;2023-08-06T07:23:19;2.08;;;0.80;;
28343;SDS011;15597;50.914;6.638;2023-08-06T07:28:12;2.20;;;0.82;;
28343;SDS011;15597;50.914;6.638;2023-08-06T07:30:39;3.70;;;1.30;;
28343;SDS011;15597;50.914;6.638;2023-08-06T07:33:06;3.78;;;1.25;;
28343;SDS011;15597;50.914;6.638;2023-08-06T07:35:32;2.63;;;0.88;;
28343;SDS011;15597;50.914;6.638;2023-08-06T07:37:58;2.33;;;1.00;;
28343;SDS011;15597;50.914;6.638;2023-08-06T07:40:23;2.25;;;0.90;;
28343;SDS011;15597;50.914;6.638;2023-08-06T07:42:49;4.00;;;1.80;;
28343;SDS011;15597;50.914;6.638;2023-08-06T07:45:14;3.03;;;1.38;;
28343;SDS011;15597;50.914;6.638;2023-08-06T07:47:40;2.92;;;1.10;;
28343;SDS011;15597;50.914;6.638;2023-08-06T07:50:06;2.83;;;1.05;;
28343;SDS011;15597;50.914;6.638;2023-08-06T07:52:32;3.35;;;1.15;;
28343;SDS011;15597;50.914;6.638;2023-08-06T07:54:57;2.70;;;1.20;;
28343;SDS011;15597;50.914;6.638;2023-08-06T07:57:23;1.83;;;0.93;;
28343;SDS011;15597;50.914;6.638;2023-08-06T07:59:49;2.72;;;0.93;;
28343;SDS011;15597;50.914;6.638;2023-08-06T08:02:14;3.60;;;0.95;;
28343;SDS011;15597;50.914;6.638;2023-08-06T08:04:40;2.15;;;0.90;;
28343;SDS011;15597;50.914;6.638;2023-08-06T08:07:05;3.10;;;0.90;;
28343;SDS011;15597;50.914;6.638;2023-08-06T08:09:31;2.60;;;0.93;;
28343;SDS011;15597;50.914;6.638;2023-08-06T08:11:57;3.05;;;1.08;;
28343;SDS011;15597;50.914;6.638;2023-08-06T08:14:24;2.60;;;0.98;;
28343;SDS011;15597;50.914;6.638;2023-08-06T08:16:49;1.70;;;0.80;;
28343;SDS011;15597;50.914;6.638;2023-08-06T08:19:15;3.45;;;0.80;;
28343;SDS011;15597;50.914;6.638;2023-08-06T08:21:40;1.80;;;0.85;;
28343;SDS011;15597;50.914;6.638;2023-08-06T08:24:06;1.80;;;0.80;;
28343;SDS011;15597;50.914;6.638;2023-08-06T08:26:31;1.25;;;0.70;;
28343;SDS011;15597;50.914;6.638;2023-08-06T08:28:57;2.10;;;0.70;;
28343;SDS011;15597;50.914;6.638;2023-08-06T08:31:23;2.10;;;0.60;;
28343;SDS011;15597;50.914;6.638;2023-08-06T08:33:48;3.35;;;1.00;;
28343;SDS011;15597;50.914;6.638;2023-08-06T08:36:14;2.35;;;0.95;;
28343;SDS011;15597;50.914;6.638;2023-08-06T08:38:39;1.63;;;0.70;;
28343;SDS011;15597;50.914;6.638;2023-08-06T08:41:05;2.10;;;0.80;;
28343;SDS011;15597;50.914;6.638;2023-08-06T08:43:32;2.75;;;0.95;;
28343;SDS011;15597;50.914;6.638;2023-08-06T08:45:58;2.22;;;0.82;;
28343;SDS011;15597;50.914;6.638;2023-08-06T08:48:27;1.38;;;0.80;;
28343;SDS011;15597;50.914;6.638;2023-08-06T08:50:53;2.13;;;0.80;;
28343;SDS011;15597;50.914;6.638;2023-08-06T08:53:18;2.03;;;0.80;;
28343;SDS011;15597;50.914;6.638;2023-08-06T08:55:47;1.13;;;0.60;;
28343;SDS011;15597;50.914;6.638;2023-08-06T08:58:14;2.35;;;0.70;;
28343;SDS011;15597;50.914;6.638;2023-08-06T09:00:45;1.15;;;0.60;;
28343;SDS011;15597;50.914;6.638;2023-08-06T09:03:12;0.68;;;0.45;;
28343;SDS011;15597;50.914;6.638;2023-08-06T09:05:39;1.80;;;0.60;;
28343;SDS011;15597;50.914;6.638;2023-08-06T09:08:11;1.63;;;0.57;;
28343;SDS011;15597;50.914;6.638;2023-08-06T09:10:41;1.20;;;0.20;;
28343;SDS011;15597;50.914;6.638;2023-08-06T09:13:08;1.90;;;0.60;;
28343;SDS011;15597;50.914;6.638;2023-08-06T09:15:34;1.15;;;0.60;;
28343;SDS011;15597;50.914;6.638;2023-08-06T09:18:00;1.67;;;0.60;;
28343;SDS011;15597;50.914;6.638;2023-08-06T09:20:34;2.05;;;0.98;;
28343;SDS011;15597;50.914;6.638;2023-08-06T09:23:06;2.08;;;1.10;;
28343;SDS011;15597;50.914;6.638;2023-08-06T09:25:37;3.20;;;1.30;;
28343;SDS011;15597;50.914;6.638;2023-08-06T09:30:29;2.55;;;1.10;;
28343;SDS011;15597;50.914;6.638;2023-08-06T09:32:58;1.75;;;0.65;;
28343;SDS011;15597;50.914;6.638;2023-08-06T09:35:25;2.85;;;0.80;;
28343;SDS011;15597;50.914;6.638;2023-08-06T09:37:52;2.85;;;0.75;;
28343;SDS011;15597;50.914;6.638;2023-08-06T09:40:31;1.17;;;0.55;;
28343;SDS011;15597;50.914;6.638;2023-08-06T09:42:57;2.00;;;0.45;;
28343;SDS011;15597;50.914;6.638;2023-08-06T09:45:28;1.02;;;0.60;;
28343;SDS011;15597;50.914;6.638;2023-08-06T09:47:57;2.50;;;0.60;;
28343;SDS011;15597;50.914;6.638;2023-08-06T09:50:23;4.20;;;0.77;;
28343;SDS011;15597;50.914;6.638;2023-08-06T09:52:54;1.92;;;0.70;;
28343;SDS011;15597;50.914;6.638;2023-08-06T09:55:20;1.98;;;0.50;;
28343;SDS011;15597;50.914;6.638;2023-08-06T09:57:46;3.35;;;0.50;;
28343;SDS011;15597;50.914;6.638;2023-08-06T10:00:12;4.03;;;0.80;;
28343;SDS011;15597;50.914;6.638;2023-08-06T10:02:39;2.45;;;1.10;;
28343;SDS011;15597;50.914;6.638;2023-08-06T10:05:06;1.63;;;0.60;;
28343;SDS011;15597;50.914;6.638;2023-08-06T10:07:33;3.72;;;1.00;;
28343;SDS011;15597;50.914;6.638;2023-08-06T10:10:00;2.83;;;1.20;;
28343;SDS011;15597;50.914;6.638;2023-08-06T10:12:27;2.80;;;1.08;;
28343;SDS011;15597;50.914;6.638;2023-08-06T10:14:55;2.50;;;0.80;;
28343;SDS011;15597;50.914;6.638;2023-08-06T10:17:24;2.95;;;1.05;;
28343;SDS011;15597;50.914;6.638;2023-08-06T10:19:52;2.92;;;1.10;;
28343;SDS011;15597;50.914;6.638;2023-08-06T10:22:20;3.92;;;1.20;;
28343;SDS011;15597;50.914;6.638;2023-08-06T10:24:47;3.40;;;1.40;;
28343;SDS011;15597;50.914;6.638;2023-08-06T10:29:48;4.07;;;1.35;;
28343;SDS011;15597;50.914;6.638;2023-08-06T10:32:17;3.95;;;1.20;;
28343;SDS011;15597;50.914;6.638;2023-08-06T10:34:52;2.55;;;0.90;;
28343;SDS011;15597;50.914;6.638;2023-08-06T10:37:20;2.60;;;0.90;;
28343;SDS011;15597;50.914;6.638;2023-08-06T10:39:49;2.83;;;1.10;;
28343;SDS011;15597;50.914;6.638;2023-08-06T10:42:22;2.80;;;1.00;;
28343;SDS011;15597;50.914;6.638;2023-08-06T10:45:11;2.50;;;1.00;;
28343;SDS011;15597;50.914;6.638;2023-08-06T10:47:41;2.17;;;1.00;;
28343;SDS011;15597;50.914;6.638;2023-08-06T10:50:10;4.60;;;1.40;;
28343;SDS011;15597;50.914;6.638;2023-08-06T10:52:42;5.22;;;1.25;;
28343;SDS011;15597;50.914;6.638;2023-08-06T10:55:09;4.03;;;1.30;;
28343;SDS011;15597;50.914;6.638;2023-08-06T10:57:35;3.28;;;1.30;;
28343;SDS011;15597;50.914;6.638;2023-08-06T11:00:03;4.03;;;1.10;;
28343;SDS011;15597;50.914;6.638;2023-08-06T11:02:33;5.22;;;1.15;;
28343;SDS011;15597;50.914;6.638;2023-08-06T11:05:04;5.88;;;1.25;;
28343;SDS011;15597;50.914;6.638;2023-08-06T11:07:33;3.25;;;0.98;;
28343;SDS011;15597;50.914;6.638;2023-08-06T11:10:07;2.75;;;1.00;;
28343;SDS011;15597;50.914;6.638;2023-08-06T11:12:33;2.83;;;0.90;;
28343;SDS011;15597;50.914;6.638;2023-08-06T11:15:01;3.55;;;0.93;;
28343;SDS011;15597;50.914;6.638;2023-08-06T11:17:30;4.40;;;0.98;;
28343;SDS011;15597;50.914;6.638;2023-08-06T11:19:58;3.38;;;0.90;;
28343;SDS011;15597;50.914;6.638;2023-08-06T11:22:25;4.47;;;1.17;;
28343;SDS011;15597;50.914;6.638;2023-08-06T11:24:52;3.22;;;0.80;;
28343;SDS011;15597;50.914;6.638;2023-08-06T11:27:18;3.92;;;1.15;;
28343;SDS011;15597;50.914;6.638;2023-08-06T11:29:44;3.25;;;0.93;;
28343;SDS011;15597;50.914;6.638;2023-08-06T11:32:10;4.82;;;1.30;;
28343;SDS011;15597;50.914;6.638;2023-08-06T11:34:36;3.83;;;1.00;;
28343;SDS011;15597;50.914;6.638;2023-08-06T11:37:03;2.42;;;1.05;;
28343;SDS011;15597;50.914;6.638;2023-08-06T11:39:46;2.72;;;0.93;;
28343;SDS011;15597;50.914;6.638;2023-08-06T11:42:15;3.15;;;1.08;;
28343;SDS011;15597;50.914;6.638;2023-08-06T11:44:41;4.32;;;0.90;;
28343;SDS011;15597;50.914;6.638;2023-08-06T11:47:16;3.13;;;1.00;;
28343;SDS011;15597;50.914;6.638;2023-08-06T11:49:46;4.25;;;1.42;;
28343;SDS011;15597;50.914;6.638;2023-08-06T11:52:20;3.10;;;1.08;;
28343;SDS011;15597;50.914;6.638;2023-08-06T11:55:04;2.80;;;1.08;;
28343;SDS011;15597;50.914;6.638;2023-08-06T11:57:33;2.53;;;0.88;;
28343;SDS011;15597;50.914;6.638;2023-08-06T12:02:41;3.65;;;1.10;;
28343;SDS011;15597;50.914;6.638;2023-08-06T12:07:41;3.92;;;1.05;;
28343;SDS011;15597;50.914;6.638;2023-08-06T12:10:08;3.47;;;1.15;;
28343;SDS011;15597;50.914;6.638;2023-08-06T12:12:34;6.57;;;1.40;;
28343;SDS011;15597;50.914;6.638;2023-08-06T12:15:01;2.22;;;1.00;;
28343;SDS011;15597;50.914;6.638;2023-08-06T12:17:29;4.32;;;1.20;;
28343;SDS011;15597;50.914;6.638;2023-08-06T12:19:55;5.03;;;1.10;;
28343;SDS011;15597;50.914;6.638;2023-08-06T12:22:20;3.58;;;0.95;;
28343;SDS011;15597;50.914;6.638;2023-08-06T12:24:47;2.33;;;0.90;;
28343;SDS011;15597;50.914;6.638;2023-08-06T12:27:13;3.22;;;1.10;;
28343;SDS011;15597;50.914;6.638;2023-08-06T12:29:42;2.47;;;1.00;;
28343;SDS011;15597;50.914;6.638;2023-08-06T12:32:13;4.65;;;1.23;;
28343;SDS011;15597;50.914;6.638;2023-08-06T12:34:39;3.92;;;1.00;;
28343;SDS011;15597;50.914;6.638;2023-08-06T12:37:06;2.78;;;0.98;;
28343;SDS011;15597;50.914;6.638;2023-08-06T12:39:35;4.93;;;1.13;;
28343;SDS011;15597;50.914;6.638;2023-08-06T12:42:02;2.85;;;0.80;;
28343;SDS011;15597;50.914;6.638;2023-08-06T12:44:29;4.20;;;1.00;;
28343;SDS011;15597;50.914;6.638;2023-08-06T12:46:55;5.00;;;0.95;;
28343;SDS011;15597;50.914;6.638;2023-08-06T12:49:21;5.97;;;0.90;;
28343;SDS011;15597;50.914;6.638;2023-08-06T12:51:50;5.10;;;1.40;;
28343;SDS011;15597;50.914;6.638;2023-08-06T12:54:16;3.15;;;1.20;;
28343;SDS011;15597;50.914;6.638;2023-08-06T12:56:43;4.15;;;1.10;;
28343;SDS011;15597;50.914;6.638;2023-08-06T12:59:09;3.85;;;1.00;;
28343;SDS011;15597;50.914;6.638;2023-08-06T13:01:36;2.67;;;0.88;;
28343;SDS011;15597;50.914;6.638;2023-08-06T13:04:02;3.55;;;1.05;;
28343;SDS011;15597;50.914;6.638;2023-08-06T13:06:28;1.73;;;0.90;;
28343;SDS011;15597;50.914;6.638;2023-08-06T13:08:55;2.13;;;0.95;;
28343;SDS011;15597;50.914;6.638;2023-08-06T13:11:20;4.10;;;1.23;;
28343;SDS011;15597;50.914;6.638;2023-08-06T13:13:46;3.33;;;1.00;;
28343;SDS011;15597;50.914;6.638;2023-08-06T13:16:11;3.47;;;1.08;;
28343;SDS011;15597;50.914;6.638;2023-08-06T13:18:37;3.22;;;1.30;;
28343;SDS011;15597;50.914;6.638;2023-08-06T13:21:02;2.78;;;1.20;;
28343;SDS011;15597;50.914;6.638;2023-08-06T13:23:28;8.13;;;1.40;;
28343;SDS011;15597;50.914;6.638;2023-08-06T13:25:54;4.13;;;1.48;;
28343;SDS011;15597;50.914;6.638;2023-08-06T13:28:20;7.63;;;1.25;;
28343;SDS011;15597;50.914;6.638;2023-08-06T13:30:46;3.60;;;1.23;;
28343;SDS011;15597;50.914;6.638;2023-08-06T13:33:12;4.82;;;1.20;;
28343;SDS011;15597;50.914;6.638;2023-08-06T13:35:37;4.47;;;1.05;;
28343;SDS011;15597;50.914;6.638;2023-08-06T13:38:03;5.55;;;1.27;;
28343;SDS011;15597;50.914;6.638;2023-08-06T13:40:32;5.90;;;1.08;;
28343;SDS011;15597;50.914;6.638;2023-08-06T13:42:59;4.85;;;1.10;;
28343;SDS011;15597;50.914;6.638;2023-08-06T13:45:25;3.13;;;0.98;;
28343;SDS011;15597;50.914;6.638;2023-08-06T13:47:50;5.22;;;1.00;;
28343;SDS011;15597;50.914;6.638;2023-08-06T13:50:16;2.35;;;0.80;;
28343;SDS011;15597;50.914;6.638;2023-08-06T13:52:42;3.33;;;0.90;;
28343;SDS011;15597;50.914;6.638;2023-08-06T13:55:07;5.18;;;0.80;;
28343;SDS011;15597;50.914;6.638;2023-08-06T13:57:36;3.90;;;1.00;;
28343;SDS011;15597;50.914;6.638;2023-08-06T14:00:02;2.20;;;0.80;;
28343;SDS011;15597;50.914;6.638;2023-08-06T14:02:37;4.38;;;0.90;;
28343;SDS011;15597;50.914;6.638;2023-08-06T14:05:03;7.50;;;0.90;;
28343;SDS011;15597;50.914;6.638;2023-08-06T14:07:29;3.25;;;1.05;;
28343;SDS011;15597;50.914;6.638;2023-08-06T14:09:54;3.85;;;0.60;;
28343;SDS011;15597;50.914;6.638;2023-08-06T14:12:22;4.25;;;0.77;;
28343;SDS011;15597;50.914;6.638;2023-08-06T14:14:47;3.30;;;0.85;;
28343;SDS011;15597;50.914;6.638;2023-08-06T14:17:13;3.00;;;0.60;;
28343;SDS011;15597;50.914;6.638;2023-08-06T14:19:38;2.83;;;0.70;;
28343;SDS011;15597;50.914;6.638;2023-08-06T14:22:04;2.25;;;0.60;;
28343;SDS011;15597;50.914;6.638;2023-08-06T14:24:30;2.67;;;0.80;;
28343;SDS011;15597;50.914;6.638;2023-08-06T14:26:55;1.88;;;0.55;;
28343;SDS011;15597;50.914;6.638;2023-08-06T14:29:21;3.20;;;0.77;;
28343;SDS011;15597;50.914;6.638;2023-08-06T14:31:46;1.83;;;0.60;;
28343;SDS011;15597;50.914;6.638;2023-08-06T14:34:12;2.70;;;0.60;;
28343;SDS011;15597;50.914;6.638;2023-08-06T14:36:37;2.80;;;0.70;;
28343;SDS011;15597;50.914;6.638;2023-08-06T14:39:03;3.42;;;0.68;;
28343;SDS011;15597;50.914;6.638;2023-08-06T14:41:28;2.50;;;0.70;;
28343;SDS011;15597;50.914;6.638;2023-08-06T14:43:54;3.70;;;0.75;;
28343;SDS011;15597;50.914;6.638;2023-08-06T14:46:20;3.55;;;0.80;;
28343;SDS011;15597;50.914;6.638;2023-08-06T14:48:45;3.50;;;1.02;;
28343;SDS011;15597;50.914;6.638;2023-08-06T14:51:11;3.17;;;0.70;;
28343;SDS011;15597;50.914;6.638;2023-08-06T14:53:36;2.50;;;0.65;;
28343;SDS011;15597;50.914;6.638;2023-08-06T14:56:02;1.98;;;0.60;;
28343;SDS011;15597;50.914;6.638;2023-08-06T14:58:28;1.83;;;0.60;;
28343;SDS011;15597;50.914;6.638;2023-08-06T15:00:54;2.45;;;0.60;;
28343;SDS011;15597;50.914;6.638;2023-08-06T15:03:20;1.80;;;0.57;;
28343;SDS011;15597;50.914;6.638;2023-08-06T15:05:48;1.00;;;0.40;;